Time;durP1;ratioP1;P1;durP2;ratioP2;P2;SDS_P1;SDS_P2;PMS_P1;PMS_P2;Temp;Humidity;BMP_temperature;BMP_pressure;BME280_temperature;BME280_humidity;BME280_pressure;Samples;Min_cycle;Max_cycle;Signal;HPM_P1;HPM_P2
2022/09/24 00:01:15;;;;;;;;;;;13.70;99.90;;;;;;5055303;28;20073;-61
2022/09/24 00:03:44;;;;;;;;;;;13.60;99.90;;;;;;5055397;28;20065;-62
2022/09/24 00:06:13;;;;;;;;;;;13.50;99.90;;;;;;5054689;28;20062;-60
2022/09/24 00:08:41;;;;;;;;;;;13.60;99.90;;;;;;5055081;28;19963;-61
2022/09/24 00:11:10;;;;;;;;;;;13.60;99.90;;;;;;5054919;28;19963;-61
2022/09/24 00:13:39;;;;;;;;;;;13.70;99.90;;;;;;5055206;28;19973;-61
2022/09/24 00:16:08;;;;;;;;;;;13.70;99.90;;;;;;5036979;28;19967;-62
2022/09/24 00:18:36;;;;;;;;;;;13.70;99.90;;;;;;5055119;28;20006;-62
2022/09/24 00:21:11;;;;;;;;;;;13.70;99.90;;;;;;5054767;28;19966;-62
2022/09/24 00:23:40;;;;;;;;;;;13.70;99.90;;;;;;5055094;28;20386;-61
2022/09/24 00:28:55;;;;;;;;;;;13.70;99.90;;;;;;5054750;28;20435;-61
2022/09/24 00:31:23;;;;;;;;;;;13.70;99.90;;;;;;5054556;28;20466;-61
2022/09/24 00:33:51;;;;;;;;;;;13.70;99.90;;;;;;5054853;28;20010;-62
2022/09/24 00:36:19;;;;;;;;;;;13.70;99.90;;;;;;5054264;28;20061;-61
2022/09/24 00:38:50;;;;;;;;;;;13.70;99.90;;;;;;5054496;28;20511;-63
2022/09/24 00:41:19;;;;;;;;;;;13.70;99.90;;;;;;5054505;28;19962;-61
2022/09/24 00:43:47;;;;;;;;;;;13.70;99.90;;;;;;5054533;28;19963;-64
2022/09/24 00:46:18;;;;;;;;;;;13.80;99.90;;;;;;5054120;28;20062;-64
2022/09/24 00:48:46;;;;;;;;;;;13.80;99.90;;;;;;5053833;28;20002;-62
2022/09/24 00:51:16;;;;;;;;;;;13.70;99.90;;;;;;5054296;28;20053;-61
2022/09/24 00:53:45;;;;;;;;;;;13.70;99.90;;;;;;5054389;28;20066;-62
2022/09/24 00:56:14;;;;;;;;;;;13.50;99.90;;;;;;5053039;28;20350;-62
2022/09/24 00:58:43;;;;;;;;;;;13.50;99.90;;;;;;5053987;28;20073;-62
2022/09/24 01:01:11;;;;;;;;;;;13.40;99.90;;;;;;5054149;28;19973;-61
2022/09/24 01:03:41;;;;;;;;;;;13.30;99.90;;;;;;5054107;28;20420;-62
2022/09/24 01:06:09;;;;;;;;;;;13.20;99.90;;;;;;5053935;28;19967;-63
2022/09/24 01:08:37;;;;;;;;;;;13.20;99.90;;;;;;5054016;28;19969;-63
2022/09/24 01:11:13;;;;;;;;;;;13.20;99.90;;;;;;5053594;28;20361;-63
2022/09/24 01:13:55;;;;;;;;;;;13.20;99.90;;;;;;5053793;28;19967;-61
2022/09/24 01:16:27;;;;;;;;;;;13.20;99.90;;;;;;5053799;28;19962;-61
2022/09/24 01:18:59;;;;;;;;;;;13.20;99.90;;;;;;5053974;28;19963;-61
2022/09/24 01:21:32;;;;;;;;;;;13.10;99.90;;;;;;5053720;28;19967;-61
2022/09/24 01:24:03;;;;;;;;;;;13.20;99.90;;;;;;5053743;28;19970;-60
2022/09/24 01:26:48;;;;;;;;;;;13.20;99.90;;;;;;5053520;28;19962;-62
2022/09/24 01:29:28;;;;;;;;;;;13.20;99.90;;;;;;5053654;28;19962;-61
2022/09/24 01:32:04;;;;;;;;;;;13.20;99.90;;;;;;5053339;28;19962;-61
2022/09/24 01:34:36;;;;;;;;;;;13.10;99.90;;;;;;5053881;28;19967;-61
2022/09/24 01:37:04;;;;;;;;;;;13.10;99.90;;;;;;5053015;28;19967;-61
2022/09/24 01:39:33;;;;;;;;;;;13.10;99.90;;;;;;5053384;28;19971;-61
2022/09/24 01:42:01;;;;;;;;;;;13.10;99.90;;;;;;5053356;28;19969;-61
2022/09/24 01:44:30;;;;;;;;;;;13.10;99.90;;;;;;5053259;28;19963;-63
2022/09/24 01:46:58;;;;;;;;;;;13.00;99.90;;;;;;5052889;28;19962;-62
2022/09/24 01:49:26;;;;;;;;;;;13.00;99.90;;;;;;5052759;28;20599;-62
2022/09/24 01:51:57;;;;;;;;;;;13.00;99.90;;;;;;5053076;28;20420;-63
2022/09/24 01:54:27;;;;;;;;;;;13.00;99.90;;;;;;5053207;28;19973;-62
2022/09/24 01:56:56;;;;;;;;;;;13.00;99.90;;;;;;5052803;28;20053;-62
2022/09/24 01:59:28;;;;;;;;;;;13.00;99.90;;;;;;5053027;28;19981;-63
2022/09/24 02:02:02;;;;;;;;;;;13.00;99.90;;;;;;5053145;28;20079;-61
2022/09/24 02:04:33;;;;;;;;;;;13.00;99.90;;;;;;5053007;28;20006;-61
2022/09/24 02:07:03;;;;;;;;;;;12.90;99.90;;;;;;5052701;28;20439;-62
2022/09/24 02:09:31;;;;;;;;;;;12.90;99.90;;;;;;5052615;28;19959;-62
2022/09/24 02:12:01;;;;;;;;;;;12.90;99.90;;;;;;5052759;28;19963;-64
2022/09/24 02:14:31;;;;;;;;;;;12.90;99.90;;;;;;5053001;28;19967;-61
2022/09/24 02:17:01;;;;;;;;;;;12.90;99.90;;;;;;5052436;28;19962;-61
2022/09/24 02:19:30;;;;;;;;;;;12.80;99.90;;;;;;5052599;28;20357;-61
2022/09/24 02:21:58;;;;;;;;;;;12.80;99.90;;;;;;5052696;28;19967;-62
2022/09/24 02:24:30;;;;;;;;;;;12.70;99.90;;;;;;5052647;28;19963;-64
2022/09/24 02:26:58;;;;;;;;;;;12.60;99.90;;;;;;5052543;28;19974;-61
2022/09/24 02:29:26;;;;;;;;;;;12.50;99.90;;;;;;5052554;28;19963;-61
2022/09/24 02:31:55;;;;;;;;;;;12.50;99.90;;;;;;5052292;28;19981;-61
2022/09/24 02:34:27;;;;;;;;;;;12.30;99.90;;;;;;5048408;28;20402;-62
2022/09/24 02:36:59;;;;;;;;;;;12.20;99.90;;;;;;5051392;28;21297;-60
2022/09/24 02:39:26;;;;;;;;;;;12.20;99.90;;;;;;5052405;28;19977;-61
2022/09/24 02:41:54;;;;;;;;;;;12.10;99.90;;;;;;5052102;28;19967;-60
2022/09/24 02:44:23;;;;;;;;;;;12.20;99.90;;;;;;5052406;28;20063;-61
2022/09/24 02:46:51;;;;;;;;;;;12.30;99.90;;;;;;5050549;28;20390;-61
2022/09/24 02:49:18;;;;;;;;;;;12.30;99.90;;;;;;5051902;28;19978;-61
2022/09/24 02:51:47;;;;;;;;;;;12.40;99.90;;;;;;5051840;28;20395;-61
2022/09/24 02:54:15;;;;;;;;;;;12.40;99.90;;;;;;5052097;28;20069;-60
2022/09/24 02:56:43;;;;;;;;;;;12.40;99.90;;;;;;5049930;28;20361;-61
2022/09/24 02:59:11;;;;;;;;;;;12.40;99.90;;;;;;5052172;28;19967;-61
2022/09/24 03:01:39;;;;;;;;;;;12.40;99.90;;;;;;5051914;28;19973;-63
2022/09/24 03:04:07;;;;;;;;;;;12.40;99.90;;;;;;5052002;28;19998;-63
2022/09/24 03:06:35;;;;;;;;;;;12.40;99.90;;;;;;5051661;28;19978;-60
2022/09/24 03:09:04;;;;;;;;;;;12.40;99.90;;;;;;5052026;28;19971;-63
2022/09/24 03:11:32;;;;;;;;;;;12.40;99.90;;;;;;5031752;28;20450;-62
2022/09/24 03:14:00;;;;;;;;;;;12.40;99.90;;;;;;5051599;28;19971;-61
2022/09/24 03:16:28;;;;;;;;;;;12.20;99.90;;;;;;5051640;28;19993;-61
2022/09/24 03:18:56;;;;;;;;;;;12.10;99.90;;;;;;5051813;28;19967;-62
2022/09/24 03:21:23;;;;;;;;;;;12.00;99.90;;;;;;5051148;28;19977;-61
2022/09/24 03:23:51;;;;;;;;;;;12.00;99.90;;;;;;5051684;28;19974;-61
2022/09/24 03:26:20;;;;;;;;;;;12.00;99.90;;;;;;5051655;28;19967;-61
2022/09/24 03:28:48;;;;;;;;;;;12.10;99.90;;;;;;5051864;28;19977;-61
2022/09/24 03:31:15;;;;;;;;;;;12.10;99.90;;;;;;5051443;28;19973;-61
2022/09/24 03:33:44;;;;;;;;;;;12.10;99.90;;;;;;5051752;28;19981;-62
2022/09/24 03:36:12;;;;;;;;;;;12.20;99.90;;;;;;5051239;28;20057;-62
2022/09/24 03:38:41;;;;;;;;;;;12.20;99.90;;;;;;5051654;28;19967;-61
2022/09/24 03:41:09;;;;;;;;;;;12.20;99.90;;;;;;5051488;28;20351;-61
2022/09/24 03:43:39;;;;;;;;;;;12.20;99.90;;;;;;5051694;28;20081;-62
2022/09/24 03:46:07;;;;;;;;;;;12.10;99.90;;;;;;5051296;28;19962;-61
2022/09/24 03:48:36;;;;;;;;;;;11.90;99.90;;;;;;5051004;28;19970;-61
2022/09/24 03:51:04;;;;;;;;;;;11.50;99.90;;;;;;5051317;28;19974;-61
2022/09/24 03:53:32;;;;;;;;;;;11.50;99.90;;;;;;5051627;28;20062;-63
2022/09/24 03:56:01;;;;;;;;;;;11.40;99.90;;;;;;5051392;28;19967;-61
2022/09/24 03:58:30;;;;;;;;;;;11.30;99.90;;;;;;5051159;28;20006;-62
2022/09/24 04:00:59;;;;;;;;;;;11.20;99.90;;;;;;5039554;28;19967;-61
2022/09/24 04:03:27;;;;;;;;;;;11.20;99.90;;;;;;5040785;28;19977;-65
2022/09/24 04:05:55;;;;;;;;;;;11.10;99.90;;;;;;5040966;28;19981;-62
2022/09/24 04:08:23;;;;;;;;;;;11.20;99.90;;;;;;5041341;28;20003;-63
2022/09/24 04:10:51;;;;;;;;;;;11.10;99.90;;;;;;5041201;28;19981;-61
2022/09/24 04:13:19;;;;;;;;;;;11.10;99.90;;;;;;5040941;28;19990;-61
2022/09/24 04:15:47;;;;;;;;;;;11.20;99.90;;;;;;5039982;28;19975;-62
2022/09/24 04:18:16;;;;;;;;;;;11.10;99.90;;;;;;5041328;28;20452;-61
2022/09/24 04:20:44;;;;;;;;;;;11.00;99.90;;;;;;5041371;28;20532;-63
2022/09/24 04:23:12;;;;;;;;;;;11.10;99.90;;;;;;5041311;28;19975;-60
2022/09/24 04:25:40;;;;;;;;;;;11.10;99.90;;;;;;5040455;28;19975;-61
2022/09/24 04:28:09;;;;;;;;;;;11.00;99.90;;;;;;5040386;28;20452;-60
2022/09/24 04:30:37;;;;;;;;;;;10.90;99.90;;;;;;5040448;28;19977;-63
2022/09/24 04:33:05;;;;;;;;;;;10.90;99.90;;;;;;5043620;28;19975;-61
2022/09/24 04:35:35;;;;;;;;;;;10.90;99.90;;;;;;5042974;28;20069;-63
2022/09/24 04:38:03;;;;;;;;;;;10.80;99.90;;;;;;5043442;28;19967;-64
2022/09/24 04:40:31;;;;;;;;;;;11.00;99.90;;;;;;5043586;28;19966;-63
2022/09/24 04:42:59;;;;;;;;;;;11.10;99.90;;;;;;5044992;28;20626;-63
2022/09/24 04:45:27;;;;;;;;;;;11.30;99.90;;;;;;5043296;28;20361;-62
2022/09/24 04:47:56;;;;;;;;;;;11.40;99.90;;;;;;5044325;28;19988;-61
2022/09/24 04:50:25;;;;;;;;;;;11.50;99.90;;;;;;5044062;28;20010;-63
2022/09/24 04:52:54;;;;;;;;;;;11.50;99.90;;;;;;5044614;28;19985;-61
2022/09/24 04:55:22;;;;;;;;;;;11.40;99.90;;;;;;5042614;28;19975;-60
2022/09/24 04:57:50;;;;;;;;;;;11.40;99.90;;;;;;5043803;28;20452;-61
2022/09/24 05:00:18;;;;;;;;;;;11.30;99.90;;;;;;5043789;28;20436;-62
2022/09/24 05:02:46;;;;;;;;;;;11.40;99.90;;;;;;5044590;28;19998;-64
2022/09/24 05:05:14;;;;;;;;;;;11.60;99.90;;;;;;5042820;28;20044;-62
2022/09/24 05:07:43;;;;;;;;;;;11.60;99.90;;;;;;5043702;28;19975;-60
2022/09/24 05:10:12;;;;;;;;;;;11.70;99.90;;;;;;5043593;28;19975;-60
2022/09/24 05:12:40;;;;;;;;;;;11.80;99.90;;;;;;5043873;28;20519;-60
2022/09/24 05:15:08;;;;;;;;;;;11.70;99.90;;;;;;5042027;28;20451;-61
2022/09/24 05:17:38;;;;;;;;;;;11.50;99.90;;;;;;5043453;28;20093;-61
2022/09/24 05:20:06;;;;;;;;;;;11.60;99.90;;;;;;5043237;28;20385;-60
2022/09/24 05:22:35;;;;;;;;;;;11.60;99.90;;;;;;5044054;28;19977;-65
2022/09/24 05:25:03;;;;;;;;;;;11.60;99.90;;;;;;5042133;28;20054;-65
2022/09/24 05:27:31;;;;;;;;;;;11.70;99.90;;;;;;5042500;28;20413;-64
2022/09/24 05:30:00;;;;;;;;;;;11.70;99.90;;;;;;5042922;28;20077;-61
2022/09/24 05:32:27;;;;;;;;;;;11.70;99.90;;;;;;5044011;28;20451;-61
2022/09/24 05:34:55;;;;;;;;;;;11.70;99.90;;;;;;5042671;28;20321;-62
2022/09/24 05:37:23;;;;;;;;;;;11.70;99.90;;;;;;5043276;28;20658;-63
2022/09/24 05:39:50;;;;;;;;;;;11.70;99.90;;;;;;5043276;28;19975;-61
2022/09/24 05:42:18;;;;;;;;;;;11.70;99.90;;;;;;5043448;28;19974;-60
2022/09/24 05:44:47;;;;;;;;;;;11.80;99.90;;;;;;5042148;28;19997;-60
2022/09/24 05:47:19;;;;;;;;;;;11.90;99.90;;;;;;5041663;28;20631;-64
2022/09/24 05:49:46;;;;;;;;;;;11.90;99.90;;;;;;5042977;28;19975;-63
2022/09/24 05:52:14;;;;;;;;;;;12.00;99.90;;;;;;5042685;28;19975;-64
2022/09/24 05:54:42;;;;;;;;;;;12.10;99.90;;;;;;5041743;28;19976;-60
2022/09/24 05:57:09;;;;;;;;;;;12.10;99.90;;;;;;5042572;28;19981;-61
2022/09/24 05:59:37;;;;;;;;;;;12.30;99.90;;;;;;5042478;28;19975;-63
2022/09/24 06:02:06;;;;;;;;;;;12.20;99.90;;;;;;5042618;28;19971;-62
2022/09/24 06:04:34;;;;;;;;;;;12.10;99.90;;;;;;5042036;28;19982;-64
2022/09/24 06:07:02;;;;;;;;;;;12.10;99.90;;;;;;5042526;28;20358;-65
2022/09/24 06:09:30;;;;;;;;;;;12.00;99.90;;;;;;5042081;28;19974;-62
2022/09/24 06:11:57;;;;;;;;;;;12.00;99.90;;;;;;5042938;28;19974;-62
2022/09/24 06:14:25;;;;;;;;;;;11.90;99.90;;;;;;5041719;28;19966;-62
2022/09/24 06:16:53;;;;;;;;;;;12.00;99.90;;;;;;5043253;28;19978;-60
2022/09/24 06:19:22;;;;;;;;;;;12.00;99.90;;;;;;5042015;28;20002;-61
2022/09/24 06:21:49;;;;;;;;;;;12.10;99.90;;;;;;5042219;28;19974;-64
2022/09/24 06:24:17;;;;;;;;;;;12.20;99.90;;;;;;5041420;28;19975;-64
2022/09/24 06:26:45;;;;;;;;;;;12.20;99.90;;;;;;5042632;28;19981;-64
2022/09/24 06:29:13;;;;;;;;;;;12.10;99.90;;;;;;5042483;28;21147;-60
2022/09/24 06:31:41;;;;;;;;;;;12.10;99.90;;;;;;5042355;28;19975;-61
2022/09/24 06:34:09;;;;;;;;;;;12.00;99.90;;;;;;5040485;28;19974;-61
2022/09/24 06:36:39;;;;;;;;;;;12.00;99.90;;;;;;5041877;28;19970;-63
2022/09/24 06:39:06;;;;;;;;;;;12.00;99.90;;;;;;5042174;28;19985;-60
2022/09/24 06:41:34;;;;;;;;;;;12.00;99.90;;;;;;5042001;28;20943;-62
2022/09/24 06:44:02;;;;;;;;;;;12.10;99.90;;;;;;5041177;28;20065;-63
2022/09/24 06:46:30;;;;;;;;;;;12.10;99.90;;;;;;5041671;28;20607;-63
2022/09/24 06:48:58;;;;;;;;;;;12.10;99.90;;;;;;5041704;28;20033;-61
2022/09/24 06:51:25;;;;;;;;;;;12.10;99.90;;;;;;5041455;28;19978;-61
2022/09/24 06:53:54;;;;;;;;;;;12.10;99.90;;;;;;5040584;28;19970;-61
2022/09/24 06:56:22;;;;;;;;;;;12.20;99.90;;;;;;5041729;28;19971;-65
2022/09/24 06:58:49;;;;;;;;;;;12.20;99.90;;;;;;5041987;28;19982;-64
2022/09/24 07:01:17;;;;;;;;;;;12.20;99.90;;;;;;5041996;28;19981;-64
2022/09/24 07:03:45;;;;;;;;;;;12.30;99.90;;;;;;5040715;28;19975;-66
2022/09/24 07:06:13;;;;;;;;;;;12.20;99.90;;;;;;5041547;28;19974;-63
2022/09/24 07:08:40;;;;;;;;;;;12.30;99.90;;;;;;5042047;28;19971;-61
2022/09/24 07:11:09;;;;;;;;;;;12.20;99.90;;;;;;5041092;28;19978;-62
2022/09/24 07:13:37;;;;;;;;;;;12.30;99.90;;;;;;5041147;28;19981;-66
2022/09/24 07:16:05;;;;;;;;;;;12.30;99.90;;;;;;5041011;28;19986;-61
2022/09/24 07:18:33;;;;;;;;;;;12.30;99.90;;;;;;5041410;28;19970;-61
2022/09/24 07:21:00;;;;;;;;;;;12.40;99.90;;;;;;5040525;28;19962;-61
2022/09/24 07:23:28;;;;;;;;;;;12.50;99.90;;;;;;5041687;28;20444;-61
2022/09/24 07:25:56;;;;;;;;;;;12.50;99.90;;;;;;5040656;28;20471;-63
2022/09/24 07:28:25;;;;;;;;;;;12.60;99.90;;;;;;5041802;28;19977;-62
2022/09/24 07:30:57;;;;;;;;;;;12.70;99.90;;;;;;5041628;28;19977;-63
2022/09/24 07:33:25;;;;;;;;;;;12.80;99.90;;;;;;5041853;28;19978;-62
2022/09/24 07:35:53;;;;;;;;;;;13.00;99.90;;;;;;5040343;28;19986;-63
2022/09/24 07:38:21;;;;;;;;;;;13.20;99.90;;;;;;5041463;28;19970;-62
2022/09/24 07:40:48;;;;;;;;;;;13.40;99.90;;;;;;5041232;28;21073;-63
2022/09/24 07:43:16;;;;;;;;;;;13.50;99.90;;;;;;5041672;28;20016;-63
2022/09/24 07:45:45;;;;;;;;;;;13.50;99.90;;;;;;5039418;28;19979;-64
2022/09/24 07:48:14;;;;;;;;;;;13.60;99.90;;;;;;5041649;28;19971;-64
2022/09/24 07:50:42;;;;;;;;;;;13.60;99.90;;;;;;5041142;28;19971;-65
2022/09/24 07:53:10;;;;;;;;;;;13.80;99.90;;;;;;5041960;28;20011;-64
2022/09/24 07:55:39;;;;;;;;;;;14.00;99.90;;;;;;5039816;28;19971;-64
2022/09/24 07:58:08;;;;;;;;;;;14.10;99.90;;;;;;5039360;28;20002;-64
2022/09/24 08:00:36;;;;;;;;;;;14.30;99.90;;;;;;5041263;28;20049;-64
2022/09/24 08:03:06;;;;;;;;;;;14.40;99.90;;;;;;5040135;28;19977;-64
2022/09/24 08:05:33;;;;;;;;;;;14.30;99.90;;;;;;5040172;28;19970;-64
2022/09/24 08:08:01;;;;;;;;;;;14.20;99.90;;;;;;5044242;28;19966;-63
2022/09/24 08:10:29;;;;;;;;;;;14.30;99.90;;;;;;5044936;28;19997;-63
2022/09/24 08:13:01;;;;;;;;;;;14.30;99.90;;;;;;5045224;28;19967;-63
2022/09/24 08:15:28;;;;;;;;;;;14.30;99.90;;;;;;5043470;28;19971;-62
2022/09/24 08:18:00;;;;;;;;;;;14.50;99.90;;;;;;5045276;28;19978;-64
2022/09/24 08:20:30;;;;;;;;;;;14.40;99.90;;;;;;5045299;28;19966;-63
2022/09/24 08:23:00;;;;;;;;;;;14.50;99.90;;;;;;5044161;28;19967;-62
2022/09/24 08:25:28;;;;;;;;;;;14.70;99.90;;;;;;5043750;28;19974;-63
2022/09/24 08:27:56;;;;;;;;;;;14.80;99.90;;;;;;5044884;28;19974;-63
2022/09/24 08:30:24;;;;;;;;;;;15.00;99.90;;;;;;5045104;28;20658;-63
2022/09/24 08:32:51;;;;;;;;;;;15.20;99.90;;;;;;5045025;28;19981;-63
2022/09/24 08:35:19;;;;;;;;;;;15.50;99.90;;;;;;5042686;28;20009;-63
2022/09/24 08:37:49;;;;;;;;;;;15.90;99.90;;;;;;5044746;28;19975;-63
2022/09/24 08:40:18;;;;;;;;;;;16.20;99.90;;;;;;5044873;28;20513;-63
2022/09/24 08:42:49;;;;;;;;;;;16.30;99.90;;;;;;5044641;28;19974;-63
2022/09/24 08:48:08;;;;;;;;;;;16.60;99.90;;;;;;5043564;28;19977;-63
2022/09/24 08:50:38;;;;;;;;;;;16.90;99.90;;;;;;5043527;28;19971;-63
2022/09/24 08:53:12;;;;;;;;;;;16.80;99.90;;;;;;5043512;28;20494;-63
2022/09/24 08:55:42;;;;;;;;;;;16.80;99.90;;;;;;5043008;28;20367;-64
2022/09/24 08:58:26;;;;;;;;;;;16.80;99.90;;;;;;5043898;28;20017;-65
2022/09/24 09:00:57;;;;;;;;;;;17.00;99.90;;;;;;5044434;28;19980;-63
2022/09/24 09:03:31;;;;;;;;;;;17.10;99.90;;;;;;5044174;28;19971;-64
2022/09/24 09:06:01;;;;;;;;;;;17.40;99.90;;;;;;5042745;28;19967;-63
2022/09/24 09:08:35;;;;;;;;;;;17.60;99.90;;;;;;5042935;28;19967;-63
2022/09/24 09:11:24;;;;;;;;;;;17.50;99.90;;;;;;5043953;28;20459;-63
2022/09/24 09:13:56;;;;;;;;;;;17.50;99.90;;;;;;5042564;28;19996;-63
2022/09/24 09:16:26;;;;;;;;;;;17.50;99.90;;;;;;5044322;28;19971;-64
2022/09/24 09:18:56;;;;;;;;;;;17.40;99.90;;;;;;5043108;28;20552;-63
2022/09/24 09:21:27;;;;;;;;;;;17.60;99.90;;;;;;5043933;28;19991;-66
2022/09/24 09:23:57;;;;;;;;;;;17.80;99.90;;;;;;5042369;28;19975;-66
2022/09/24 09:26:26;;;;;;;;;;;18.10;99.90;;;;;;5043435;28;19978;-64
2022/09/24 09:28:57;;;;;;;;;;;18.60;99.90;;;;;;5044042;28;19985;-63
2022/09/24 09:31:30;;;;;;;;;;;19.00;99.90;;;;;;5043707;28;19971;-64
2022/09/24 09:34:04;;;;;;;;;;;19.40;99.90;;;;;;5041696;28;19975;-63
2022/09/24 09:36:37;;;;;;;;;;;19.60;99.90;;;;;;5043167;28;19963;-63
2022/09/24 09:39:14;;;;;;;;;;;19.80;99.90;;;;;;5042965;28;20815;-63
2022/09/24 09:41:47;;;;;;;;;;;19.60;99.90;;;;;;5043613;28;19975;-63
2022/09/24 09:44:18;;;;;;;;;;;19.60;99.90;;;;;;5041909;28;19975;-63
2022/09/24 09:46:49;;;;;;;;;;;19.70;99.90;;;;;;5042395;28;19977;-64
2022/09/24 09:49:17;;;;;;;;;;;19.60;99.90;;;;;;5042931;28;19975;-63
2022/09/24 09:51:47;;;;;;;;;;;19.80;99.90;;;;;;5043598;28;19979;-63
2022/09/24 09:54:16;;;;;;;;;;;20.20;99.90;;;;;;5042057;28;19975;-63
2022/09/24 09:56:45;;;;;;;;;;;20.50;99.90;;;;;;5043712;28;20373;-64
2022/09/24 09:59:17;;;;;;;;;;;21.00;99.90;;;;;;5043473;28;19981;-64
2022/09/24 10:01:46;;;;;;;;;;;21.30;99.90;;;;;;5042919;28;19975;-63
2022/09/24 10:04:26;;;;;;;;;;;21.40;99.90;;;;;;5042175;28;20472;-66
2022/09/24 10:07:02;;;;;;;;;;;21.30;99.90;;;;;;5042956;28;19986;-64
2022/09/24 10:09:32;;;;;;;;;;;20.90;99.90;;;;;;5041969;28;20444;-63
2022/09/24 10:12:06;;;;;;;;;;;20.50;99.90;;;;;;5042306;28;19974;-63
2022/09/24 10:14:34;;;;;;;;;;;20.20;99.90;;;;;;5040616;28;19989;-63
2022/09/24 10:17:04;;;;;;;;;;;19.90;99.90;;;;;;5042482;28;19971;-63
2022/09/24 10:19:33;;;;;;;;;;;19.90;99.90;;;;;;5042877;28;20578;-64
2022/09/24 10:22:08;;;;;;;;;;;19.60;99.90;;;;;;5042167;28;19967;-64
2022/09/24 10:24:37;;;;;;;;;;;19.50;99.90;;;;;;5041452;28;20440;-63
2022/09/24 10:27:10;;;;;;;;;;;19.30;99.90;;;;;;5042484;28;20463;-64
2022/09/24 10:32:24;;;;;;;;;;;19.30;99.90;;;;;;5042837;28;19971;-64
2022/09/24 10:34:56;;;;;;;;;;;19.40;99.90;;;;;;5040660;28;19981;-64
2022/09/24 10:37:23;;;;;;;;;;;19.40;99.90;;;;;;5042658;28;19967;-65
2022/09/24 10:39:59;;;;;;;;;;;19.20;99.90;;;;;;5050309;28;19967;-65
2022/09/24 10:42:28;;;;;;;;;;;19.30;99.90;;;;;;5052304;28;20432;-64
2022/09/24 10:44:59;;;;;;;;;;;19.30;99.90;;;;;;5046759;28;19982;-64
2022/09/24 10:47:28;;;;;;;;;;;19.30;99.90;;;;;;5035834;28;19967;-65
2022/09/24 10:50:06;;;;;;;;;;;19.10;99.90;;;;;;5057597;22;20062;-62
2022/09/24 10:52:42;;;;;;;;;;;19.10;99.90;;;;;;5042403;28;19977;-64
2022/09/24 10:55:17;;;;;;;;;;;19.10;99.90;;;;;;5035621;28;19967;-64
2022/09/24 10:57:50;;;;;;;;;;;19.30;99.90;;;;;;5032381;28;19971;-63
2022/09/24 11:00:19;;;;;;;;;;;19.40;99.90;;;;;;5028111;28;19968;-64
2022/09/24 11:02:58;;;;;;;;;;;19.40;99.90;;;;;;5012348;28;20348;-64
2022/09/24 11:05:29;;;;;;;;;;;19.30;99.90;;;;;;5012390;28;20071;-63
2022/09/24 11:08:01;;;;;;;;;;;19.40;99.90;;;;;;5012372;28;20054;-63
2022/09/24 11:10:43;;;;;;;;;;;19.30;99.90;;;;;;5012034;28;19974;-63
2022/09/24 11:13:15;;;;;;;;;;;19.30;99.90;;;;;;5012322;28;19974;-65
2022/09/24 11:15:52;;;;;;;;;;;19.10;99.90;;;;;;5012378;28;19990;-65
2022/09/24 11:18:29;;;;;;;;;;;19.00;99.90;;;;;;5012618;28;19967;-65
2022/09/24 11:21:03;;;;;;;;;;;19.10;99.90;;;;;;5012168;28;19971;-65
2022/09/24 11:23:40;;;;;;;;;;;19.20;99.90;;;;;;5012254;28;20062;-66
2022/09/24 11:26:15;;;;;;;;;;;19.30;99.90;;;;;;5012225;28;19974;-65
2022/09/24 11:29:16;;;;;;;;;;;19.50;99.90;;;;;;5012149;28;19978;-63
2022/09/24 11:31:51;;;;;;;;;;;20.00;99.90;;;;;;4970405;28;20387;-63
2022/09/24 11:34:29;;;;;;;;;;;20.40;99.90;;;;;;4970821;28;20460;-63
2022/09/24 11:37:06;;;;;;;;;;;20.60;99.90;;;;;;4994251;28;19971;-64
2022/09/24 11:39:43;;;;;;;;;;;20.90;99.90;;;;;;5011826;28;19972;-62
2022/09/24 11:42:18;;;;;;;;;;;20.90;99.90;;;;;;5014907;28;20439;-63
2022/09/24 11:44:53;;;;;;;;;;;20.90;99.90;;;;;;5015991;28;20066;-62
2022/09/24 11:47:25;;;;;;;;;;;20.90;99.90;;;;;;5016179;28;19974;-64
2022/09/24 11:50:01;;;;;;;;;;;20.90;99.90;;;;;;5015200;28;20034;-64
2022/09/24 11:52:31;;;;;;;;;;;20.80;99.90;;;;;;5015901;28;20316;-63
2022/09/24 11:55:01;;;;;;;;;;;20.80;99.90;;;;;;5015770;28;20058;-62
2022/09/24 11:57:32;;;;;;;;;;;20.80;99.90;;;;;;5015777;28;20065;-64
2022/09/24 12:00:03;;;;;;;;;;;20.80;99.90;;;;;;5015304;28;19967;-64
2022/09/24 12:02:32;;;;;;;;;;;20.70;99.90;;;;;;5015794;28;20417;-64
2022/09/24 12:05:02;;;;;;;;;;;20.80;99.90;;;;;;5015819;28;19990;-64
2022/09/24 12:07:33;;;;;;;;;;;20.90;99.90;;;;;;5015730;28;19968;-63
2022/09/24 12:10:02;;;;;;;;;;;21.10;99.90;;;;;;5015147;28;20054;-62
2022/09/24 12:12:33;;;;;;;;;;;21.20;99.90;;;;;;5015546;28;20074;-64
2022/09/24 12:15:05;;;;;;;;;;;21.50;99.90;;;;;;5015239;28;20026;-64
2022/09/24 12:17:36;;;;;;;;;;;21.80;99.90;;;;;;5015512;28;20455;-63
2022/09/24 12:20:06;;;;;;;;;;;21.80;99.90;;;;;;5014921;28;19974;-63
2022/09/24 12:22:35;;;;;;;;;;;21.90;99.90;;;;;;5015394;28;20396;-64
2022/09/24 12:25:04;;;;;;;;;;;21.80;99.90;;;;;;5015178;28;19967;-63
2022/09/24 12:27:43;;;;;;;;;;;21.60;99.90;;;;;;5015214;28;20444;-64
2022/09/24 12:33:05;;;;;;;;;;;22.20;99.90;;;;;;5015137;28;20029;-64
2022/09/24 12:35:49;;;;;;;;;;;22.40;99.90;;;;;;5014927;28;20062;-63
2022/09/24 12:38:19;;;;;;;;;;;22.40;99.90;;;;;;5015100;28;19999;-65
2022/09/24 12:41:17;;;;;;;;;;;22.00;99.90;;;;;;5014656;28;19972;-63
2022/09/24 12:43:47;;;;;;;;;;;21.80;99.90;;;;;;5014996;28;19979;-64
2022/09/24 12:46:18;;;;;;;;;;;21.50;99.90;;;;;;5015199;28;20411;-64
2022/09/24 12:48:46;;;;;;;;;;;21.00;99.90;;;;;;5014787;28;19971;-64
2022/09/24 12:51:15;;;;;;;;;;;20.90;99.90;;;;;;5014016;28;19968;-64
2022/09/24 12:53:43;;;;;;;;;;;20.90;99.90;;;;;;5013489;28;20444;-64
2022/09/24 12:56:11;;;;;;;;;;;21.10;99.90;;;;;;5014609;28;19968;-64
2022/09/24 12:58:40;;;;;;;;;;;21.20;99.90;;;;;;5014601;28;20451;-64
2022/09/24 13:01:12;;;;;;;;;;;21.30;99.90;;;;;;5014223;28;19971;-64
2022/09/24 13:03:41;;;;;;;;;;;21.30;99.90;;;;;;5014472;28;20448;-64
2022/09/24 13:06:22;;;;;;;;;;;21.00;99.90;;;;;;5014605;28;19967;-64
2022/09/24 13:08:50;;;;;;;;;;;21.00;99.90;;;;;;5014505;28;19974;-64
2022/09/24 13:11:29;;;;;;;;;;;21.10;99.90;;;;;;5014232;28;20362;-64
2022/09/24 13:13:58;;;;;;;;;;;21.20;99.90;;;;;;5014475;28;19972;-64
2022/09/24 13:16:28;;;;;;;;;;;21.30;99.90;;;;;;5014570;28;19972;-63
2022/09/24 13:18:56;;;;;;;;;;;21.40;99.90;;;;;;5014255;28;19967;-64
2022/09/24 13:21:25;;;;;;;;;;;21.60;99.90;;;;;;5013670;28;20448;-64
2022/09/24 13:23:53;;;;;;;;;;;22.10;99.90;;;;;;5014196;28;20444;-63
2022/09/24 13:26:33;;;;;;;;;;;22.50;99.90;;;;;;5014057;28;19968;-64
2022/09/24 13:29:02;;;;;;;;;;;22.50;99.90;;;;;;5014320;28;19967;-64
2022/09/24 13:31:43;;;;;;;;;;;22.20;99.90;;;;;;5013350;28;19978;-64
2022/09/24 13:34:17;;;;;;;;;;;22.00;99.90;;;;;;5014066;28;19967;-64
2022/09/24 13:36:48;;;;;;;;;;;21.60;99.90;;;;;;5013775;28;19974;-64
2022/09/24 13:39:16;;;;;;;;;;;21.60;99.90;;;;;;5013827;28;19972;-64
2022/09/24 13:41:48;;;;;;;;;;;21.40;99.90;;;;;;5013522;28;20022;-64
2022/09/24 13:44:19;;;;;;;;;;;21.30;99.90;;;;;;5013780;28;19971;-64
2022/09/24 13:46:50;;;;;;;;;;;21.10;99.90;;;;;;5013645;28;19978;-64
2022/09/24 13:49:19;;;;;;;;;;;21.10;99.90;;;;;;5013639;28;20376;-64
2022/09/24 13:51:50;;;;;;;;;;;21.00;99.90;;;;;;5013232;28;20354;-64
2022/09/24 13:54:22;;;;;;;;;;;21.10;99.90;;;;;;5013642;28;19971;-64
2022/09/24 13:56:58;;;;;;;;;;;21.10;99.90;;;;;;5013391;28;19971;-64
2022/09/24 13:59:26;;;;;;;;;;;21.00;99.90;;;;;;5013693;28;20073;-64
2022/09/24 14:01:55;;;;;;;;;;;20.90;99.90;;;;;;5013185;28;19990;-64
2022/09/24 14:04:24;;;;;;;;;;;20.70;99.90;;;;;;5013155;28;20021;-64
2022/09/24 14:06:52;;;;;;;;;;;20.70;99.90;;;;;;5013373;28;19978;-64
2022/09/24 14:09:28;;;;;;;;;;;20.70;99.90;;;;;;5013230;28;20430;-64
2022/09/24 14:11:57;;;;;;;;;;;20.40;99.90;;;;;;5013281;28;19978;-64
2022/09/24 14:14:26;;;;;;;;;;;20.30;99.90;;;;;;5013256;28;20007;-64
2022/09/24 14:17:05;;;;;;;;;;;20.10;99.90;;;;;;5012915;28;19974;-64
2022/09/24 14:19:34;;;;;;;;;;;19.80;99.90;;;;;;5013377;28;19967;-64
2022/09/24 14:22:03;;;;;;;;;;;19.80;99.90;;;;;;5012996;28;19974;-64
2022/09/24 14:24:32;;;;;;;;;;;19.70;99.90;;;;;;5013104;28;19967;-63
2022/09/24 14:27:01;;;;;;;;;;;19.60;99.90;;;;;;5012760;28;20066;-62
2022/09/24 14:29:38;;;;;;;;;;;19.50;99.90;;;;;;5012662;28;19973;-64
2022/09/24 14:32:19;;;;;;;;;;;19.40;99.90;;;;;;5012740;28;19975;-64
2022/09/24 14:34:51;;;;;;;;;;;19.30;99.90;;;;;;5013238;28;19972;-63
2022/09/24 14:37:20;;;;;;;;;;;19.30;99.90;;;;;;5012889;28;19968;-63
2022/09/24 14:39:48;;;;;;;;;;;19.10;99.90;;;;;;5012466;28;20541;-64
2022/09/24 14:42:21;;;;;;;;;;;19.10;99.90;;;;;;5012917;28;19989;-62
2022/09/24 14:44:50;;;;;;;;;;;19.10;99.90;;;;;;5012681;28;19967;-63